sensor_id;sensor_type;location;lat;lon;timestamp;P1;durP1;ratioP1;P2;durP2;ratioP2
870;SDS011;422;51.280;7.236;2023-12-14T00:00:53;11.93;;;9.80;;
870;SDS011;422;51.280;7.236;2023-12-14T00:03:20;12.20;;;9.60;;
870;SDS011;422;51.280;7.236;2023-12-14T00:05:48;12.27;;;9.83;;
870;SDS011;422;51.280;7.236;2023-12-14T00:08:17;11.07;;;9.13;;
870;SDS011;422;51.280;7.236;2023-12-14T00:10:44;14.60;;;10.50;;
870;SDS011;422;51.280;7.236;2023-12-14T00:13:11;10.97;;;9.67;;
870;SDS011;422;51.280;7.236;2023-12-14T00:15:39;10.90;;;9.50;;
870;SDS011;422;51.280;7.236;2023-12-14T00:18:06;11.87;;;10.53;;
870;SDS011;422;51.280;7.236;2023-12-14T00:20:34;13.03;;;10.50;;
870;SDS011;422;51.280;7.236;2023-12-14T00:23:01;13.77;;;10.60;;
870;SDS011;422;51.280;7.236;2023-12-14T00:25:30;12.17;;;10.33;;
870;SDS011;422;51.280;7.236;2023-12-14T00:27:57;15.27;;;11.90;;
870;SDS011;422;51.280;7.236;2023-12-14T00:30:24;12.97;;;10.97;;
870;SDS011;422;51.280;7.236;2023-12-14T00:32:52;15.33;;;10.97;;
870;SDS011;422;51.280;7.236;2023-12-14T00:35:19;16.67;;;10.80;;
870;SDS011;422;51.280;7.236;2023-12-14T00:37:46;20.40;;;13.70;;
870;SDS011;422;51.280;7.236;2023-12-14T00:40:16;16.70;;;13.10;;
870;SDS011;422;51.280;7.236;2023-12-14T00:42:44;17.53;;;13.30;;
870;SDS011;422;51.280;7.236;2023-12-14T00:45:12;24.20;;;15.60;;
870;SDS011;422;51.280;7.236;2023-12-14T00:47:39;23.27;;;17.03;;
870;SDS011;422;51.280;7.236;2023-12-14T00:50:06;25.87;;;15.90;;
870;SDS011;422;51.280;7.236;2023-12-14T00:52:34;22.97;;;16.10;;
870;SDS011;422;51.280;7.236;2023-12-14T00:55:02;26.60;;;15.23;;
870;SDS011;422;51.280;7.236;2023-12-14T00:57:29;17.00;;;13.57;;
870;SDS011;422;51.280;7.236;2023-12-14T00:59:58;13.60;;;11.00;;
870;SDS011;422;51.280;7.236;2023-12-14T01:02:25;12.23;;;9.73;;
870;SDS011;422;51.280;7.236;2023-12-14T01:04:53;10.97;;;8.93;;
870;SDS011;422;51.280;7.236;2023-12-14T01:07:20;11.90;;;9.40;;
870;SDS011;422;51.280;7.236;2023-12-14T01:09:47;11.73;;;9.50;;
870;SDS011;422;51.280;7.236;2023-12-14T01:12:14;15.77;;;12.30;;
870;SDS011;422;51.280;7.236;2023-12-14T01:14:42;14.33;;;11.43;;
870;SDS011;422;51.280;7.236;2023-12-14T01:17:10;20.07;;;13.50;;
870;SDS011;422;51.280;7.236;2023-12-14T01:19:39;16.23;;;12.50;;
870;SDS011;422;51.280;7.236;2023-12-14T01:22:07;15.37;;;12.00;;
870;SDS011;422;51.280;7.236;2023-12-14T01:24:34;15.70;;;11.53;;
870;SDS011;422;51.280;7.236;2023-12-14T01:27:01;16.17;;;12.80;;
870;SDS011;422;51.280;7.236;2023-12-14T01:29:28;13.87;;;12.23;;
870;SDS011;422;51.280;7.236;2023-12-14T01:31:55;22.80;;;14.20;;
870;SDS011;422;51.280;7.236;2023-12-14T01:34:24;18.77;;;15.10;;
870;SDS011;422;51.280;7.236;2023-12-14T01:36:52;19.60;;;14.90;;
870;SDS011;422;51.280;7.236;2023-12-14T01:39:19;20.17;;;14.37;;
870;SDS011;422;51.280;7.236;2023-12-14T01:41:46;22.90;;;14.90;;
870;SDS011;422;51.280;7.236;2023-12-14T01:44:14;22.60;;;15.23;;
870;SDS011;422;51.280;7.236;2023-12-14T01:46:41;22.13;;;15.17;;
870;SDS011;422;51.280;7.236;2023-12-14T01:49:08;23.30;;;14.77;;
870;SDS011;422;51.280;7.236;2023-12-14T01:51:37;22.00;;;16.57;;
870;SDS011;422;51.280;7.236;2023-12-14T01:54:04;27.03;;;16.10;;
870;SDS011;422;51.280;7.236;2023-12-14T01:56:31;23.40;;;16.80;;
870;SDS011;422;51.280;7.236;2023-12-14T01:58:59;26.93;;;17.57;;
870;SDS011;422;51.280;7.236;2023-12-14T02:01:28;30.87;;;16.60;;
870;SDS011;422;51.280;7.236;2023-12-14T02:04:02;36.33;;;18.47;;
870;SDS011;422;51.280;7.236;2023-12-14T02:06:32;25.33;;;17.13;;
870;SDS011;422;51.280;7.236;2023-12-14T02:09:01;45.90;;;17.80;;
870;SDS011;422;51.280;7.236;2023-12-14T02:11:28;29.87;;;16.60;;
870;SDS011;422;51.280;7.236;2023-12-14T02:13:56;75.23;;;18.60;;
870;SDS011;422;51.280;7.236;2023-12-14T02:19:45;34.70;;;16.90;;
870;SDS011;422;51.280;7.236;2023-12-14T02:22:12;35.93;;;15.50;;
870;SDS011;422;51.280;7.236;2023-12-14T02:24:41;27.20;;;15.87;;
870;SDS011;422;51.280;7.236;2023-12-14T02:27:07;33.60;;;15.13;;
870;SDS011;422;51.280;7.236;2023-12-14T02:29:34;28.27;;;15.23;;
870;SDS011;422;51.280;7.236;2023-12-14T02:32:01;23.40;;;14.87;;
870;SDS011;422;51.280;7.236;2023-12-14T02:34:28;27.30;;;14.43;;
870;SDS011;422;51.280;7.236;2023-12-14T02:36:55;33.50;;;14.30;;
870;SDS011;422;51.280;7.236;2023-12-14T02:39:23;40.00;;;17.23;;
870;SDS011;422;51.280;7.236;2023-12-14T02:41:51;44.33;;;14.70;;
870;SDS011;422;51.280;7.236;2023-12-14T02:44:18;67.73;;;17.27;;
870;SDS011;422;51.280;7.236;2023-12-14T02:46:45;49.53;;;13.90;;
870;SDS011;422;51.280;7.236;2023-12-14T02:49:13;69.67;;;16.43;;
870;SDS011;422;51.280;7.236;2023-12-14T02:51:41;41.10;;;13.90;;
870;SDS011;422;51.280;7.236;2023-12-14T02:54:09;23.03;;;11.70;;
870;SDS011;422;51.280;7.236;2023-12-14T02:56:36;18.93;;;11.83;;
870;SDS011;422;51.280;7.236;2023-12-14T02:59:05;13.33;;;11.17;;
870;SDS011;422;51.280;7.236;2023-12-14T03:01:32;12.73;;;10.83;;
870;SDS011;422;51.280;7.236;2023-12-14T03:04:00;11.20;;;9.23;;
870;SDS011;422;51.280;7.236;2023-12-14T03:06:27;9.43;;;7.60;;
870;SDS011;422;51.280;7.236;2023-12-14T03:08:54;7.73;;;6.10;;
870;SDS011;422;51.280;7.236;2023-12-14T03:11:21;7.67;;;5.90;;
870;SDS011;422;51.280;7.236;2023-12-14T03:13:50;8.13;;;5.83;;
870;SDS011;422;51.280;7.236;2023-12-14T03:16:19;6.87;;;5.40;;
870;SDS011;422;51.280;7.236;2023-12-14T03:18:46;5.83;;;4.70;;
870;SDS011;422;51.280;7.236;2023-12-14T03:21:17;7.20;;;5.10;;
870;SDS011;422;51.280;7.236;2023-12-14T03:23:45;6.50;;;4.50;;
870;SDS011;422;51.280;7.236;2023-12-14T03:26:12;6.13;;;4.37;;
870;SDS011;422;51.280;7.236;2023-12-14T03:28:39;5.40;;;4.00;;
870;SDS011;422;51.280;7.236;2023-12-14T03:31:06;5.60;;;4.27;;
870;SDS011;422;51.280;7.236;2023-12-14T03:33:38;6.83;;;4.47;;
870;SDS011;422;51.280;7.236;2023-12-14T03:36:05;5.33;;;4.20;;
870;SDS011;422;51.280;7.236;2023-12-14T03:38:33;7.13;;;4.87;;
870;SDS011;422;51.280;7.236;2023-12-14T03:41:00;5.97;;;4.23;;
870;SDS011;422;51.280;7.236;2023-12-14T03:43:27;4.43;;;3.17;;
870;SDS011;422;51.280;7.236;2023-12-14T03:45:54;6.07;;;3.80;;
870;SDS011;422;51.280;7.236;2023-12-14T03:48:22;6.70;;;4.50;;
870;SDS011;422;51.280;7.236;2023-12-14T03:50:51;4.73;;;3.90;;
870;SDS011;422;51.280;7.236;2023-12-14T03:53:18;6.27;;;4.70;;
870;SDS011;422;51.280;7.236;2023-12-14T03:55:46;6.17;;;4.80;;
870;SDS011;422;51.280;7.236;2023-12-14T03:58:13;8.33;;;6.07;;
870;SDS011;422;51.280;7.236;2023-12-14T04:00:40;10.03;;;8.30;;
870;SDS011;422;51.280;7.236;2023-12-14T04:03:07;10.47;;;8.30;;
870;SDS011;422;51.280;7.236;2023-12-14T04:05:35;12.73;;;9.63;;
870;SDS011;422;51.280;7.236;2023-12-14T04:08:05;11.60;;;8.73;;
870;SDS011;422;51.280;7.236;2023-12-14T04:10:32;14.80;;;10.50;;
870;SDS011;422;51.280;7.236;2023-12-14T04:12:59;11.37;;;8.50;;
870;SDS011;422;51.280;7.236;2023-12-14T04:15:27;12.87;;;9.43;;
870;SDS011;422;51.280;7.236;2023-12-14T04:17:54;17.83;;;9.17;;
870;SDS011;422;51.280;7.236;2023-12-14T04:20:21;12.00;;;8.17;;
870;SDS011;422;51.280;7.236;2023-12-14T04:22:48;12.23;;;9.67;;
870;SDS011;422;51.280;7.236;2023-12-14T04:25:17;13.00;;;10.10;;
870;SDS011;422;51.280;7.236;2023-12-14T04:27:45;16.20;;;11.93;;
870;SDS011;422;51.280;7.236;2023-12-14T04:30:12;14.27;;;10.47;;
870;SDS011;422;51.280;7.236;2023-12-14T04:32:39;19.90;;;13.20;;
870;SDS011;422;51.280;7.236;2023-12-14T04:35:06;16.20;;;11.80;;
870;SDS011;422;51.280;7.236;2023-12-14T04:37:34;20.03;;;13.60;;
870;SDS011;422;51.280;7.236;2023-12-14T04:40:01;23.83;;;13.03;;
870;SDS011;422;51.280;7.236;2023-12-14T04:42:30;19.07;;;13.90;;
870;SDS011;422;51.280;7.236;2023-12-14T04:44:57;18.27;;;13.57;;
870;SDS011;422;51.280;7.236;2023-12-14T04:47:25;19.10;;;13.83;;
870;SDS011;422;51.280;7.236;2023-12-14T04:49:52;20.30;;;13.97;;
870;SDS011;422;51.280;7.236;2023-12-14T04:52:19;17.00;;;12.53;;
870;SDS011;422;51.280;7.236;2023-12-14T04:54:46;15.30;;;11.97;;
870;SDS011;422;51.280;7.236;2023-12-14T04:57:13;18.17;;;12.40;;
870;SDS011;422;51.280;7.236;2023-12-14T04:59:43;13.97;;;10.87;;
870;SDS011;422;51.280;7.236;2023-12-14T05:02:10;13.43;;;10.40;;
870;SDS011;422;51.280;7.236;2023-12-14T05:04:37;12.43;;;8.47;;
870;SDS011;422;51.280;7.236;2023-12-14T05:07:05;10.27;;;7.03;;
870;SDS011;422;51.280;7.236;2023-12-14T05:09:32;9.50;;;7.10;;
870;SDS011;422;51.280;7.236;2023-12-14T05:11:59;12.40;;;7.20;;
870;SDS011;422;51.280;7.236;2023-12-14T05:14:26;8.30;;;6.60;;
870;SDS011;422;51.280;7.236;2023-12-14T05:16:56;8.13;;;6.47;;
870;SDS011;422;51.280;7.236;2023-12-14T05:19:23;8.63;;;6.70;;
870;SDS011;422;51.280;7.236;2023-12-14T05:21:50;10.40;;;8.20;;
870;SDS011;422;51.280;7.236;2023-12-14T05:24:19;8.20;;;6.20;;
870;SDS011;422;51.280;7.236;2023-12-14T05:26:46;10.53;;;6.20;;
870;SDS011;422;51.280;7.236;2023-12-14T05:29:13;8.30;;;6.30;;
870;SDS011;422;51.280;7.236;2023-12-14T05:31:42;7.90;;;5.93;;
870;SDS011;422;51.280;7.236;2023-12-14T05:34:11;9.43;;;6.90;;
870;SDS011;422;51.280;7.236;2023-12-14T05:36:38;8.13;;;6.10;;
870;SDS011;422;51.280;7.236;2023-12-14T05:39:05;9.10;;;5.93;;
870;SDS011;422;51.280;7.236;2023-12-14T05:41:33;10.17;;;7.17;;
870;SDS011;422;51.280;7.236;2023-12-14T05:44:06;9.80;;;6.90;;
870;SDS011;422;51.280;7.236;2023-12-14T05:46:33;8.90;;;6.97;;
870;SDS011;422;51.280;7.236;2023-12-14T05:49:01;11.50;;;7.60;;
870;SDS011;422;51.280;7.236;2023-12-14T05:51:30;9.67;;;7.77;;
870;SDS011;422;51.280;7.236;2023-12-14T05:53:59;8.77;;;7.37;;
870;SDS011;422;51.280;7.236;2023-12-14T05:56:26;10.80;;;7.00;;
870;SDS011;422;51.280;7.236;2023-12-14T05:58:53;9.83;;;7.47;;
870;SDS011;422;51.280;7.236;2023-12-14T06:01:20;11.60;;;8.70;;
870;SDS011;422;51.280;7.236;2023-12-14T06:03:50;11.97;;;8.33;;
870;SDS011;422;51.280;7.236;2023-12-14T06:06:18;10.20;;;7.53;;
870;SDS011;422;51.280;7.236;2023-12-14T06:08:45;10.60;;;8.17;;
870;SDS011;422;51.280;7.236;2023-12-14T06:11:13;11.43;;;7.50;;
870;SDS011;422;51.280;7.236;2023-12-14T06:13:41;12.17;;;8.70;;
870;SDS011;422;51.280;7.236;2023-12-14T06:16:08;12.50;;;9.20;;
870;SDS011;422;51.280;7.236;2023-12-14T06:18:38;10.30;;;7.20;;
870;SDS011;422;51.280;7.236;2023-12-14T06:21:07;11.77;;;8.50;;
870;SDS011;422;51.280;7.236;2023-12-14T06:23:35;9.83;;;8.23;;
870;SDS011;422;51.280;7.236;2023-12-14T06:26:05;11.20;;;9.17;;
870;SDS011;422;51.280;7.236;2023-12-14T06:28:32;11.10;;;8.67;;
870;SDS011;422;51.280;7.236;2023-12-14T06:30:59;11.40;;;9.20;;
870;SDS011;422;51.280;7.236;2023-12-14T06:33:27;12.73;;;8.83;;
870;SDS011;422;51.280;7.236;2023-12-14T06:35:54;10.53;;;8.13;;
870;SDS011;422;51.280;7.236;2023-12-14T06:38:22;11.93;;;8.43;;
870;SDS011;422;51.280;7.236;2023-12-14T06:40:49;11.93;;;9.23;;
870;SDS011;422;51.280;7.236;2023-12-14T06:43:18;11.77;;;9.50;;
870;SDS011;422;51.280;7.236;2023-12-14T06:45:45;13.10;;;8.70;;
870;SDS011;422;51.280;7.236;2023-12-14T06:48:12;13.27;;;9.60;;
870;SDS011;422;51.280;7.236;2023-12-14T06:50:39;12.50;;;8.30;;
870;SDS011;422;51.280;7.236;2023-12-14T06:53:07;12.90;;;8.70;;
870;SDS011;422;51.280;7.236;2023-12-14T06:55:34;12.70;;;8.00;;
870;SDS011;422;51.280;7.236;2023-12-14T06:58:01;11.93;;;7.97;;
870;SDS011;422;51.280;7.236;2023-12-14T07:00:30;13.93;;;9.33;;
870;SDS011;422;51.280;7.236;2023-12-14T07:02:57;12.43;;;9.10;;
870;SDS011;422;51.280;7.236;2023-12-14T07:05:24;10.97;;;8.63;;
870;SDS011;422;51.280;7.236;2023-12-14T07:07:51;14.00;;;9.80;;
870;SDS011;422;51.280;7.236;2023-12-14T07:10:19;16.67;;;9.43;;
870;SDS011;422;51.280;7.236;2023-12-14T07:12:46;15.00;;;9.87;;
870;SDS011;422;51.280;7.236;2023-12-14T07:15:14;15.30;;;10.67;;
870;SDS011;422;51.280;7.236;2023-12-14T07:17:42;17.30;;;11.10;;
870;SDS011;422;51.280;7.236;2023-12-14T07:20:10;12.77;;;9.60;;
870;SDS011;422;51.280;7.236;2023-12-14T07:22:38;16.53;;;11.10;;
870;SDS011;422;51.280;7.236;2023-12-14T07:25:06;17.00;;;11.13;;
870;SDS011;422;51.280;7.236;2023-12-14T07:27:33;14.47;;;9.67;;
870;SDS011;422;51.280;7.236;2023-12-14T07:30:01;14.97;;;10.97;;
870;SDS011;422;51.280;7.236;2023-12-14T07:32:28;16.50;;;11.07;;
870;SDS011;422;51.280;7.236;2023-12-14T07:34:57;18.43;;;12.87;;
870;SDS011;422;51.280;7.236;2023-12-14T07:37:24;18.67;;;12.93;;
870;SDS011;422;51.280;7.236;2023-12-14T07:39:51;17.40;;;11.80;;
870;SDS011;422;51.280;7.236;2023-12-14T07:42:19;18.50;;;13.10;;
870;SDS011;422;51.280;7.236;2023-12-14T07:44:46;20.87;;;14.17;;
870;SDS011;422;51.280;7.236;2023-12-14T07:47:13;21.70;;;14.17;;
870;SDS011;422;51.280;7.236;2023-12-14T07:49:40;21.17;;;14.60;;
870;SDS011;422;51.280;7.236;2023-12-14T07:52:09;20.90;;;15.90;;
870;SDS011;422;51.280;7.236;2023-12-14T07:54:38;20.37;;;15.67;;
870;SDS011;422;51.280;7.236;2023-12-14T07:57:06;23.70;;;16.00;;
870;SDS011;422;51.280;7.236;2023-12-14T07:59:33;24.20;;;18.23;;
870;SDS011;422;51.280;7.236;2023-12-14T08:02:00;31.67;;;21.20;;
870;SDS011;422;51.280;7.236;2023-12-14T08:04:28;29.40;;;19.83;;
870;SDS011;422;51.280;7.236;2023-12-14T08:06:56;30.70;;;18.87;;
870;SDS011;422;51.280;7.236;2023-12-14T08:09:24;24.63;;;17.17;;
870;SDS011;422;51.280;7.236;2023-12-14T08:11:52;26.17;;;18.30;;
870;SDS011;422;51.280;7.236;2023-12-14T08:14:19;32.53;;;19.10;;
870;SDS011;422;51.280;7.236;2023-12-14T08:16:47;26.30;;;18.73;;
870;SDS011;422;51.280;7.236;2023-12-14T08:19:14;25.80;;;19.47;;
870;SDS011;422;51.280;7.236;2023-12-14T08:21:41;30.00;;;20.57;;
870;SDS011;422;51.280;7.236;2023-12-14T08:24:08;29.73;;;18.60;;
870;SDS011;422;51.280;7.236;2023-12-14T08:26:37;26.33;;;17.80;;
870;SDS011;422;51.280;7.236;2023-12-14T08:29:05;30.30;;;19.90;;
870;SDS011;422;51.280;7.236;2023-12-14T08:31:32;32.67;;;20.00;;
870;SDS011;422;51.280;7.236;2023-12-14T08:34:00;33.77;;;19.30;;
870;SDS011;422;51.280;7.236;2023-12-14T08:36:28;29.10;;;20.03;;
870;SDS011;422;51.280;7.236;2023-12-14T08:38:56;29.10;;;19.50;;
870;SDS011;422;51.280;7.236;2023-12-14T08:41:24;27.83;;;19.03;;
870;SDS011;422;51.280;7.236;2023-12-14T08:43:53;27.00;;;19.90;;
870;SDS011;422;51.280;7.236;2023-12-14T08:46:21;27.73;;;19.00;;
870;SDS011;422;51.280;7.236;2023-12-14T08:48:48;26.97;;;19.33;;
870;SDS011;422;51.280;7.236;2023-12-14T08:51:17;24.43;;;17.80;;
870;SDS011;422;51.280;7.236;2023-12-14T08:53:45;27.20;;;18.50;;
870;SDS011;422;51.280;7.236;2023-12-14T08:56:13;26.47;;;17.50;;
870;SDS011;422;51.280;7.236;2023-12-14T08:58:41;24.30;;;18.10;;
870;SDS011;422;51.280;7.236;2023-12-14T09:01:09;24.50;;;18.20;;
870;SDS011;422;51.280;7.236;2023-12-14T09:03:37;28.13;;;18.20;;
870;SDS011;422;51.280;7.236;2023-12-14T09:06:04;28.23;;;17.70;;
870;SDS011;422;51.280;7.236;2023-12-14T09:08:32;27.77;;;20.73;;
870;SDS011;422;51.280;7.236;2023-12-14T09:11:02;29.67;;;19.57;;
870;SDS011;422;51.280;7.236;2023-12-14T09:13:30;32.00;;;20.27;;
870;SDS011;422;51.280;7.236;2023-12-14T09:15:57;31.27;;;20.17;;
870;SDS011;422;51.280;7.236;2023-12-14T09:18:26;31.90;;;21.70;;
870;SDS011;422;51.280;7.236;2023-12-14T09:20:54;30.37;;;20.03;;
870;SDS011;422;51.280;7.236;2023-12-14T09:23:21;32.53;;;22.00;;
870;SDS011;422;51.280;7.236;2023-12-14T09:25:48;27.97;;;20.07;;
870;SDS011;422;51.280;7.236;2023-12-14T09:28:16;34.00;;;21.67;;
870;SDS011;422;51.280;7.236;2023-12-14T09:30:43;31.77;;;21.43;;
870;SDS011;422;51.280;7.236;2023-12-14T09:33:11;32.00;;;21.23;;
870;SDS011;422;51.280;7.236;2023-12-14T09:35:40;30.67;;;21.73;;
870;SDS011;422;51.280;7.236;2023-12-14T09:38:07;28.90;;;20.80;;
870;SDS011;422;51.280;7.236;2023-12-14T09:40:36;33.47;;;21.37;;
870;SDS011;422;51.280;7.236;2023-12-14T09:43:03;29.07;;;19.43;;
870;SDS011;422;51.280;7.236;2023-12-14T09:45:31;29.40;;;21.80;;
870;SDS011;422;51.280;7.236;2023-12-14T09:47:59;30.43;;;19.43;;
870;SDS011;422;51.280;7.236;2023-12-14T09:50:27;32.70;;;22.85;;
870;SDS011;422;51.280;7.236;2023-12-14T09:52:57;31.40;;;21.37;;
870;SDS011;422;51.280;7.236;2023-12-14T09:55:25;29.27;;;21.27;;
870;SDS011;422;51.280;7.236;2023-12-14T09:57:52;32.10;;;21.23;;
870;SDS011;422;51.280;7.236;2023-12-14T10:00:32;31.93;;;20.20;;
870;SDS011;422;51.280;7.236;2023-12-14T10:05:46;28.90;;;20.80;;
870;SDS011;422;51.280;7.236;2023-12-14T10:08:17;32.27;;;21.10;;
870;SDS011;422;51.280;7.236;2023-12-14T10:10:46;28.40;;;19.33;;
870;SDS011;422;51.280;7.236;2023-12-14T10:13:16;30.73;;;20.57;;
870;SDS011;422;51.280;7.236;2023-12-14T10:15:45;27.60;;;19.23;;
870;SDS011;422;51.280;7.236;2023-12-14T10:18:13;32.63;;;18.70;;
870;SDS011;422;51.280;7.236;2023-12-14T10:20:48;29.23;;;20.03;;
870;SDS011;422;51.280;7.236;2023-12-14T10:23:17;37.87;;;21.63;;
870;SDS011;422;51.280;7.236;2023-12-14T10:25:44;28.77;;;19.70;;
870;SDS011;422;51.280;7.236;2023-12-14T10:28:12;25.37;;;19.13;;
870;SDS011;422;51.280;7.236;2023-12-14T10:30:39;26.70;;;18.27;;
870;SDS011;422;51.280;7.236;2023-12-14T10:33:07;26.70;;;18.40;;
870;SDS011;422;51.280;7.236;2023-12-14T10:35:35;25.50;;;18.07;;
870;SDS011;422;51.280;7.236;2023-12-14T10:38:03;26.27;;;18.83;;
870;SDS011;422;51.280;7.236;2023-12-14T10:40:33;22.73;;;17.37;;
870;SDS011;422;51.280;7.236;2023-12-14T10:43:06;23.50;;;17.23;;
870;SDS011;422;51.280;7.236;2023-12-14T10:45:34;22.00;;;15.93;;
870;SDS011;422;51.280;7.236;2023-12-14T10:48:04;20.57;;;15.67;;
870;SDS011;422;51.280;7.236;2023-12-14T10:50:32;23.47;;;15.97;;
870;SDS011;422;51.280;7.236;2023-12-14T10:53:02;21.70;;;15.50;;
870;SDS011;422;51.280;7.236;2023-12-14T10:55:31;20.37;;;15.00;;
870;SDS011;422;51.280;7.236;2023-12-14T10:58:03;18.70;;;13.50;;
870;SDS011;422;51.280;7.236;2023-12-14T11:00:31;21.30;;;15.40;;
870;SDS011;422;51.280;7.236;2023-12-14T11:02:59;19.33;;;14.03;;
870;SDS011;422;51.280;7.236;2023-12-14T11:05:27;18.97;;;14.00;;
870;SDS011;422;51.280;7.236;2023-12-14T11:07:55;19.30;;;13.37;;
870;SDS011;422;51.280;7.236;2023-12-14T11:10:38;23.40;;;16.43;;
870;SDS011;422;51.280;7.236;2023-12-14T11:13:09;26.17;;;17.80;;
870;SDS011;422;51.280;7.236;2023-12-14T11:15:39;27.40;;;19.33;;
870;SDS011;422;51.280;7.236;2023-12-14T11:18:23;24.60;;;16.90;;
870;SDS011;422;51.280;7.236;2023-12-14T11:20:54;27.23;;;18.60;;
870;SDS011;422;51.280;7.236;2023-12-14T11:23:32;26.80;;;18.57;;
870;SDS011;422;51.280;7.236;2023-12-14T11:26:03;23.00;;;16.17;;
870;SDS011;422;51.280;7.236;2023-12-14T11:28:32;25.40;;;17.40;;
870;SDS011;422;51.280;7.236;2023-12-14T11:31:01;23.87;;;16.00;;
870;SDS011;422;51.280;7.236;2023-12-14T11:33:32;26.20;;;16.57;;
870;SDS011;422;51.280;7.236;2023-12-14T11:36:00;25.13;;;17.07;;
870;SDS011;422;51.280;7.236;2023-12-14T11:38:29;24.10;;;16.80;;
870;SDS011;422;51.280;7.236;2023-12-14T11:40:57;24.20;;;17.40;;
870;SDS011;422;51.280;7.236;2023-12-14T11:43:27;26.13;;;18.37;;
870;SDS011;422;51.280;7.236;2023-12-14T11:45:54;26.13;;;18.07;;
870;SDS011;422;51.280;7.236;2023-12-14T11:48:21;22.20;;;16.53;;
870;SDS011;422;51.280;7.236;2023-12-14T11:50:49;21.87;;;16.03;;
870;SDS011;422;51.280;7.236;2023-12-14T11:53:16;22.30;;;16.20;;
870;SDS011;422;51.280;7.236;2023-12-14T11:55:45;22.27;;;15.37;;
870;SDS011;422;51.280;7.236;2023-12-14T11:58:13;21.37;;;15.67;;
870;SDS011;422;51.280;7.236;2023-12-14T12:00:43;23.13;;;15.80;;
870;SDS011;422;51.280;7.236;2023-12-14T12:03:12;21.03;;;15.87;;
870;SDS011;422;51.280;7.236;2023-12-14T12:05:41;22.50;;;16.77;;
870;SDS011;422;51.280;7.236;2023-12-14T12:08:10;24.37;;;17.30;;
870;SDS011;422;51.280;7.236;2023-12-14T12:10:39;24.40;;;16.30;;
870;SDS011;422;51.280;7.236;2023-12-14T12:13:07;21.90;;;15.23;;
870;SDS011;422;51.280;7.236;2023-12-14T12:15:38;23.17;;;16.40;;
870;SDS011;422;51.280;7.236;2023-12-14T12:18:07;23.57;;;18.80;;
870;SDS011;422;51.280;7.236;2023-12-14T12:20:35;22.53;;;16.20;;
870;SDS011;422;51.280;7.236;2023-12-14T12:23:03;23.63;;;17.50;;
870;SDS011;422;51.280;7.236;2023-12-14T12:25:30;23.83;;;17.73;;
870;SDS011;422;51.280;7.236;2023-12-14T12:27:58;23.70;;;18.67;;
870;SDS011;422;51.280;7.236;2023-12-14T12:30:27;23.00;;;16.30;;
870;SDS011;422;51.280;7.236;2023-12-14T12:32:54;23.43;;;16.60;;
870;SDS011;422;51.280;7.236;2023-12-14T12:35:23;21.20;;;15.93;;
870;SDS011;422;51.280;7.236;2023-12-14T12:37:51;21.73;;;16.20;;
870;SDS011;422;51.280;7.236;2023-12-14T12:40:20;23.17;;;17.03;;
870;SDS011;422;51.280;7.236;2023-12-14T12:42:47;25.47;;;18.07;;
870;SDS011;422;51.280;7.236;2023-12-14T12:45:15;21.60;;;16.37;;
870;SDS011;422;51.280;7.236;2023-12-14T12:47:43;23.00;;;16.33;;
870;SDS011;422;51.280;7.236;2023-12-14T12:50:10;21.60;;;16.37;;
870;SDS011;422;51.280;7.236;2023-12-14T12:52:40;23.53;;;17.17;;
870;SDS011;422;51.280;7.236;2023-12-14T12:55:08;19.07;;;14.97;;
870;SDS011;422;51.280;7.236;2023-12-14T12:57:36;21.07;;;15.60;;
870;SDS011;422;51.280;7.236;2023-12-14T13:00:04;19.97;;;15.87;;
870;SDS011;422;51.280;7.236;2023-12-14T13:02:36;21.60;;;16.10;;
870;SDS011;422;51.280;7.236;2023-12-14T13:05:04;23.57;;;16.23;;
870;SDS011;422;51.280;7.236;2023-12-14T13:07:32;19.93;;;14.30;;
870;SDS011;422;51.280;7.236;2023-12-14T13:10:01;19.47;;;14.10;;
870;SDS011;422;51.280;7.236;2023-12-14T13:12:30;21.40;;;16.00;;
870;SDS011;422;51.280;7.236;2023-12-14T13:14:57;15.30;;;11.70;;
870;SDS011;422;51.280;7.236;2023-12-14T13:17:26;17.27;;;13.30;;
870;SDS011;422;51.280;7.236;2023-12-14T13:19:53;19.13;;;12.60;;
870;SDS011;422;51.280;7.236;2023-12-14T13:22:20;19.00;;;13.30;;
870;SDS011;422;51.280;7.236;2023-12-14T13:24:48;19.10;;;13.40;;
870;SDS011;422;51.280;7.236;2023-12-14T13:27:16;19.50;;;13.50;;
870;SDS011;422;51.280;7.236;2023-12-14T13:29:44;22.13;;;14.70;;
870;SDS011;422;51.280;7.236;2023-12-14T13:32:11;19.17;;;13.80;;
870;SDS011;422;51.280;7.236;2023-12-14T13:34:38;20.63;;;14.20;;
870;SDS011;422;51.280;7.236;2023-12-14T13:37:06;20.70;;;15.03;;
870;SDS011;422;51.280;7.236;2023-12-14T13:39:34;18.97;;;14.50;;
870;SDS011;422;51.280;7.236;2023-12-14T13:42:03;20.67;;;15.00;;
870;SDS011;422;51.280;7.236;2023-12-14T13:44:32;18.37;;;13.27;;
870;SDS011;422;51.280;7.236;2023-12-14T13:47:01;18.63;;;15.07;;
870;SDS011;422;51.280;7.236;2023-12-14T13:49:28;14.50;;;12.27;;
870;SDS011;422;51.280;7.236;2023-12-14T13:51:56;19.40;;;14.53;;
870;SDS011;422;51.280;7.236;2023-12-14T13:54:23;17.40;;;12.63;;
870;SDS011;422;51.280;7.236;2023-12-14T13:56:50;14.90;;;11.97;;
870;SDS011;422;51.280;7.236;2023-12-14T13:59:18;16.30;;;11.83;;
870;SDS011;422;51.280;7.236;2023-12-14T14:01:47;17.73;;;13.33;;
870;SDS011;422;51.280;7.236;2023-12-14T14:04:15;16.50;;;12.80;;
870;SDS011;422;51.280;7.236;2023-12-14T14:06:43;17.80;;;12.27;;
870;SDS011;422;51.280;7.236;2023-12-14T14:09:11;19.53;;;14.20;;
870;SDS011;422;51.280;7.236;2023-12-14T14:11:39;12.60;;;9.47;;
870;SDS011;422;51.280;7.236;2023-12-14T14:14:10;16.63;;;9.40;;
870;SDS011;422;51.280;7.236;2023-12-14T14:16:38;13.63;;;10.30;;
870;SDS011;422;51.280;7.236;2023-12-14T14:19:07;15.70;;;10.77;;
870;SDS011;422;51.280;7.236;2023-12-14T14:21:34;12.80;;;10.47;;
870;SDS011;422;51.280;7.236;2023-12-14T14:24:02;16.70;;;11.40;;
870;SDS011;422;51.280;7.236;2023-12-14T14:26:30;15.80;;;11.40;;
870;SDS011;422;51.280;7.236;2023-12-14T14:28:57;15.10;;;10.70;;
870;SDS011;422;51.280;7.236;2023-12-14T14:31:27;15.33;;;11.33;;
870;SDS011;422;51.280;7.236;2023-12-14T14:33:57;14.27;;;11.30;;
870;SDS011;422;51.280;7.236;2023-12-14T14:36:27;15.17;;;10.50;;
870;SDS011;422;51.280;7.236;2023-12-14T14:38:54;15.97;;;12.13;;
870;SDS011;422;51.280;7.236;2023-12-14T14:41:22;15.97;;;12.37;;
870;SDS011;422;51.280;7.236;2023-12-14T14:43:50;15.27;;;12.77;;
870;SDS011;422;51.280;7.236;2023-12-14T14:46:18;16.20;;;12.10;;
870;SDS011;422;51.280;7.236;2023-12-14T14:48:45;17.10;;;13.30;;
870;SDS011;422;51.280;7.236;2023-12-14T14:51:13;15.73;;;12.70;;
870;SDS011;422;51.280;7.236;2023-12-14T14:53:41;16.80;;;13.77;;
870;SDS011;422;51.280;7.236;2023-12-14T14:56:09;17.17;;;12.87;;
870;SDS011;422;51.280;7.236;2023-12-14T14:58:36;17.07;;;12.60;;
870;SDS011;422;51.280;7.236;2023-12-14T15:01:04;18.03;;;11.70;;
870;SDS011;422;51.280;7.236;2023-12-14T15:03:34;17.90;;;12.50;;
870;SDS011;422;51.280;7.236;2023-12-14T15:06:02;16.37;;;11.97;;
870;SDS011;422;51.280;7.236;2023-12-14T15:08:29;14.80;;;11.90;;
870;SDS011;422;51.280;7.236;2023-12-14T15:10:58;16.57;;;12.47;;
870;SDS011;422;51.280;7.236;2023-12-14T15:13:25;17.27;;;13.07;;
870;SDS011;422;51.280;7.236;2023-12-14T15:15:54;17.13;;;12.80;;
870;SDS011;422;51.280;7.236;2023-12-14T15:18:22;18.83;;;13.60;;
870;SDS011;422;51.280;7.236;2023-12-14T15:20:49;15.77;;;12.90;;
870;SDS011;422;51.280;7.236;2023-12-14T15:23:18;16.93;;;12.53;;
870;SDS011;422;51.280;7.236;2023-12-14T15:25:45;20.13;;;13.87;;
870;SDS011;422;51.280;7.236;2023-12-14T15:28:14;16.03;;;13.00;;
870;SDS011;422;51.280;7.236;2023-12-14T15:30:41;18.23;;;13.83;;